Главная страница
METAR-TAF:

METAR-TAF

Аэропорты :

Тунис, Тунис

Тунис-Карфаген

широта: 36-50N, долгота: 010-14E, высота над уровнем моря: 3 м

Текущие метеонаблюдения

Эта сводка был подготовлена 29 минут назад, в 13:00 UTC
Ветер 10 Узел от восточный, изменяющийся между северо-восточный и юго-юго-восточный
Температура 27°C
Влажность 32%
Давление 1017 hPa
Видимость 10 км и более
Нет облачности ниже 1500 м, и нет кучево-дождевой облачности

METAR: DTTA 231300Z 10010KT 050V160 CAVOK 27/09 Q1017 NOSIG

Время: 14:29 (13:29 UTC)

Прогноз

Эта сводка был подготовлена 2 часа и 29 минут назад, в 11:00 UTC
Прогноз действительный с 23-го 12 UTC до 24-го 12 UTC
Ветер 10 Узел от восточный
Видимость 10 км и более
небольшая облачность на высоте 2600 фута
Вероятность 40% :
временами
С 23-го 15 UTC до 23-го 18 UTC
Ветер 15 Узел от восточный с порывами до 25 Узел

TAF: DTTA 231100Z 2312/2412 08010KT 9999 FEW026 PROB40 TEMPO 2315/2318 09015G25KT

Метеонаблюдения и прогнозы для более 4000 аэропортов (сводки METAR и TAF).

Имеющиеся станции представлены на карте желтыми и красными точками.

Чтобы увидеть название станции, наведите на нее мышь.

Затем щелкните, чтобы увидеть метеонаблюдения и метеопрогнозы.

Управление картой: чтобы увеличить масштаб, щелкните зеленые кнопки с черным крестиком; чтобы уменьшить масштаб, щелкните зеленую кнопку с тире; для просмотра соседних карт щелкайте зеленые стрелки.


METAR-TAF: